CDT,Max TemperatureF,Mean TemperatureF,Min TemperatureF,Max Dew PointF,MeanDew PointF,Min DewpointF,Max Humidity, Mean Humidity, Min Humidity, Max Sea Level PressureIn, Mean Sea Level PressureIn, Min Sea Level PressureIn, Max VisibilityMiles, Mean VisibilityMiles, Min VisibilityMiles, Max Wind SpeedMPH, Mean Wind SpeedMPH, Max Gust SpeedMPH,PrecipitationIn, CloudCover, Events, WindDirDegrees
2012-9-1,84,70,55,54,49,46,77,54,28,30.15,30.09,30.01,10,10,10,17,9,23,0.00,0,,99
2012-9-2,87,73,59,64,57,50,77,58,40,30.01,29.90,29.82,10,10,10,22,11,29,0.00,0,,158
2012-9-3,87,73,59,61,50,32,88,53,14,29.96,29.92,29.87,10,10,10,10,5,,0.00,0,,57
2012-9-4,84,70,55,57,48,36,82,51,18,29.87,29.84,29.80,10,10,7,13,7,16,0.00,0,Thunderstorm,315
2012-9-5,75,65,53,54,44,36,82,49,24,29.93,29.89,29.78,10,10,10,20,8,25,0.02,1,Rain,288
2012-9-6,78,63,48,54,45,34,87,58,20,29.97,29.94,29.90,10,10,7,12,6,,0.00,2,Rain-Thunderstorm,232
2012-9-7,64,57,48,54,45,37,94,65,37,30.09,30.04,29.96,10,10,10,24,8,30,0.02,3,Rain-Thunderstorm,333
2012-9-8,71,58,46,46,42,34,87,59,27,30.12,30.01,29.91,10,10,10,26,11,39,0.00,3,,292
2012-9-9,71,58,46,48,43,37,93,61,29,30.23,30.15,30.06,10,10,10,9,5,,0.00,0,,268
2012-9-10,84,68,51,45,42,37,76,43,19,30.06,29.87,29.74,10,10,10,29,14,39,0.00,0,,169
2012-9-11,89,74,60,48,44,28,63,39,18,29.96,29.74,29.67,10,10,10,18,11,25,0.00,0,Rain,194
2012-9-12,69,60,50,46,36,12,76,47,11,30.25,30.14,29.98,10,10,7,15,6,20,0.01,1,Rain,273
2012-9-13,73,56,39,37,25,9,87,35,9,30.34,30.29,30.25,10,10,7,16,6,21,0.00,0,,296
2012-9-14,73,57,41,37,31,21,76,42,14,30.35,30.30,30.23,10,10,10,10,8,16,0.00,0,,68
2012-9-15,84,62,41,41,36,34,81,39,16,30.23,30.05,29.91,10,10,10,16,8,22,0.00,0,,146
2012-9-16,78,64,50,46,40,34,76,45,22,30.04,29.94,29.88,10,10,10,18,10,24,0.00,0,Rain-Thunderstorm,333
2012-9-17,60,51,41,43,35,27,76,56,33,30.06,30.04,30.01,10,10,10,18,9,23,0.00,3,Rain,326
2012-9-18,57,46,35,39,33,25,93,62,29,30.06,29.98,29.80,10,10,7,14,6,,0.00,2,,235
2012-9-19,68,57,46,45,38,32,87,51,32,29.88,29.75,29.65,10,10,10,33,14,43,0.00,1,Rain,261
2012-9-20,64,53,42,41,33,28,76,48,26,29.96,29.91,29.87,10,10,10,21,10,31,0.00,1,,286
2012-9-21,62,50,39,43,36,21,87,60,26,29.98,29.87,29.83,10,10,10,25,8,34,0.00,3,,318
2012-9-22,55,47,37,37,32,21,87,59,28,30.26,30.17,29.99,10,10,10,17,14,30,0.00,3,,321
2012-9-23,59,49,39,34,27,21,75,43,23,30.32,30.25,30.16,10,10,10,13,6,20,0.00,0,,274
2012-9-24,78,56,35,43,34,27,70,35,18,29.96,29.81,29.74,10,10,7,20,10,23,0.00,0,,268
2012-9-25,66,52,37,41,35,28,93,58,26,30.01,29.92,29.84,10,10,10,10,7,,0.00,0,,353
2012-9-26,62,48,33,39,33,28,93,60,30,30.22,30.13,30.01,10,10,10,9,5,18,0.00,0,,19
2012-9-27,69,52,35,36,33,30,93,52,23,30.27,30.21,30.17,10,10,7,8,4,,0.00,0,,148
2012-9-28,80,60,41,39,34,30,81,44,16,30.21,30.16,30.11,10,10,4,9,4,16,0.00,0,,197
2012-9-29,84,67,50,39,35,32,66,35,16,30.15,30.09,30.03,10,10,7,9,5,,0.00,0,,247
2012-9-30,82,64,46,45,39,34,82,45,17,30.04,29.95,29.87,10,10,4,13,5,17,0.00,0,,165